Terminal Aerodrome Forecast
Issued by NWS Tulsa, OK

Home | Current Version | Previous Version | Text Only | Print | Product List | Glossary On
Versions: 1 2 3 4 5 6 7 8 9 10 11 12 13 14 15
000
FTUS44 KTSA 022300
TAFTUL
TAF
KTUL 022321Z 0300/0324 00000KT 6SM BR OVC011
     FM030200 17011KT 2SM BR OVC008
     FM031200 19013KT 4SM BR OVC007 PROB30 0312/0318 2SM -DZ BR
      OVC004
     FM031800 21014KT 5SM BR OVC015 PROB30 0318/0324 2SM -RA BR
      OVC015=

USA.gov is the U.S. government's official web portal to all federal, state and local government web resources and services.